Alta, Indiana
Current Conditions -  °F | °C
As of 11:15 AM on Thursday 18 Dec 2014 (Local Time) from KPRG Reporting Station
Overcast Overcast  
Wind Chill: -3°   Ceiling: 1600
Heat Index: -3°   Visibility: 10mi
Dew Point: -6°   Wind: 0mph
Humidity: 81%   Direction: NA
Pressure: 30.32"   Gusts: NA
Location:  39.7643°N, 87.4119°W
Report Text: KPRG 181615Z AUTO 00000KT 10SM OVC016 M03/M05 A3032 RMK AO2 T10271055
Loading
Personal Weather Stations






























Interactive Weather Map New forecast layout! Learn more

10-Day Weather Forecast

Advertisements
Track Severe Weather on mobile